Rechercher aéroport 
image banner adimage banner adimage banner ad
image banner ad

0O2 - Baker

Situé à Baker, United States

ICAO - 0O2, IATA -

Données fournies par Airmate  

Information générale

Coordonnées: N35°17'11" W116°4'53"
Élévation : 922 feet MSL.
Variation magnétique : 14° East
Voir autres Aéroports à California

Données opérationnelles

Special qualification required
Heure actuelle UTC:
Heure actuelle locale:
Météo à : KBYS - Bicycle Lake Aaf ( 50 km )
METAR: KBYS 231358Z AUTO 00000KT 9SM CLR 19/06 A2996 RMK AO2 SLP119 T01920056 $
Voir NOTAMs / SUP AIP / TFR affectant cet aéroport [VIEW]
Fréquences de communication: [VIEW]

Pistes:

Identifiant RWYQFULongueur (ft)Largeur (ft)SurfaceLDA (ft)
15166°315750ASPH
33346°315750ASPH

Coordonnées de l'aéroport

Adresse: Baker United States

Vue satellite de 0O2